Time;durP1;ratioP1;P1;durP2;ratioP2;P2;SDS_P1;SDS_P2;PMS_P1;PMS_P2;Temp;Humidity;BMP_temperature;BMP_pressure;BME280_temperature;BME280_humidity;BME280_pressure;Samples;Min_cycle;Max_cycle;Signal;HPM_P1;HPM_P2
2023/02/26 00:01:33;;;;;;;6.43;0.90;;;3.50;99.90;;;;;;4873359;29;20047;-76
2023/02/26 00:04:01;;;;;;;3.38;1.25;;;3.60;99.90;;;;;;4871747;29;20423;-76
2023/02/26 00:06:32;;;;;;;3.90;0.82;;;3.60;99.90;;;;;;4881846;29;20028;-75
2023/02/26 00:08:58;;;;;;;5.15;1.15;;;3.70;99.90;;;;;;4881478;29;20041;-76
2023/02/26 00:11:24;;;;;;;1.70;0.60;;;3.70;99.90;;;;;;4897349;29;20024;-76
2023/02/26 00:13:50;;;;;;;6.28;0.70;;;3.70;99.90;;;;;;4896438;29;20417;-78
2023/02/26 00:16:28;;;;;;;4.60;0.85;;;3.80;99.90;;;;;;4893299;29;20040;-75
2023/02/26 00:18:55;;;;;;;15.82;0.93;;;3.90;99.90;;;;;;4895511;29;20071;-76
2023/02/26 00:21:25;;;;;;;2.87;1.00;;;3.90;99.90;;;;;;4880296;29;20035;-76
2023/02/26 00:23:52;;;;;;;5.78;0.43;;;3.90;99.90;;;;;;4898131;29;20035;-77
2023/02/26 00:26:18;;;;;;;9.75;1.08;;;4.00;99.90;;;;;;4899167;29;20033;-76
2023/02/26 00:28:44;;;;;;;1.17;0.60;;;3.90;99.90;;;;;;4881611;29;20156;-76
2023/02/26 00:31:13;;;;;;;1.42;0.75;;;3.90;99.90;;;;;;4882359;29;20463;-76
2023/02/26 00:33:39;;;;;;;0.70;0.52;;;3.80;99.90;;;;;;4897595;29;20509;-77
2023/02/26 00:36:20;;;;;;;3.03;0.50;;;3.80;99.90;;;;;;4897470;29;20067;-75
2023/02/26 00:39:16;;;;;;;2.08;0.60;;;3.80;99.90;;;;;;4900842;29;20032;-77
2023/02/26 00:41:42;;;;;;;5.15;1.02;;;3.70;99.90;;;;;;4902440;29;20490;-77
2023/02/26 00:44:07;;;;;;;2.80;0.45;;;3.70;99.90;;;;;;4882098;29;20043;-77
2023/02/26 00:46:58;;;;;;;2.50;0.95;;;3.70;99.90;;;;;;4902575;29;20058;-76
2023/02/26 00:49:51;;;;;;;6.13;0.52;;;3.70;99.90;;;;;;4882619;29;20031;-77
2023/02/26 00:52:32;;;;;;;4.07;0.57;;;3.70;99.90;;;;;;4878889;29;20033;-77
2023/02/26 00:54:58;;;;;;;7.13;0.90;;;3.60;99.90;;;;;;4893966;29;20048;-77
2023/02/26 00:57:23;;;;;;;0.55;0.30;;;3.50;99.90;;;;;;4898252;29;20047;-77
2023/02/26 00:59:49;;;;;;;1.63;0.40;;;3.40;99.90;;;;;;4896078;29;20515;-77
2023/02/26 01:02:14;;;;;;;11.35;0.80;;;3.40;99.90;;;;;;4877565;29;20028;-76
2023/02/26 01:04:41;;;;;;;1.50;0.45;;;3.30;99.90;;;;;;4897753;29;20037;-77
2023/02/26 01:07:09;;;;;;;2.33;0.57;;;3.20;99.90;;;;;;4881145;29;20108;-76
2023/02/26 01:09:36;;;;;;;3.00;0.75;;;3.20;99.90;;;;;;4893611;29;20576;-76
2023/02/26 01:12:07;;;;;;;8.73;0.88;;;3.20;99.90;;;;;;4896814;29;20441;-76
2023/02/26 01:14:33;;;;;;;7.82;0.65;;;3.10;99.90;;;;;;4881411;29;20035;-77
2023/02/26 01:17:08;;;;;;;3.20;0.45;;;3.10;99.90;;;;;;4880589;29;20025;-77
2023/02/26 01:20:04;;;;;;;6.75;0.68;;;3.10;99.90;;;;;;4877837;29;20025;-77
2023/02/26 01:22:49;;;;;;;4.28;0.77;;;3.00;99.90;;;;;;4863906;29;20079;-77
2023/02/26 01:25:20;;;;;;;6.40;0.40;;;3.00;99.90;;;;;;4875236;29;20596;-77
2023/02/26 01:27:46;;;;;;;2.58;0.50;;;2.90;99.90;;;;;;4893813;29;20036;-77
2023/02/26 01:30:12;;;;;;;6.30;0.82;;;2.90;99.90;;;;;;4881029;29;20052;-77
2023/02/26 01:32:50;;;;;;;2.95;0.30;;;2.80;99.90;;;;;;4889989;29;20044;-76
2023/02/26 01:35:39;;;;;;;0.75;0.13;;;2.80;99.90;;;;;;4886146;29;20037;-75
2023/02/26 01:38:27;;;;;;;4.53;0.88;;;2.80;99.90;;;;;;4896974;29;20025;-75
2023/02/26 01:41:13;;;;;;;3.30;0.17;;;2.80;99.90;;;;;;4878225;29;20520;-75
2023/02/26 01:43:49;;;;;;;4.22;0.28;;;2.80;99.90;;;;;;4877912;29;20397;-76
2023/02/26 01:46:30;;;;;;;1.42;0.45;;;2.80;99.90;;;;;;4890265;29;20027;-76
2023/02/26 01:48:57;;;;;;;8.38;0.68;;;2.80;99.90;;;;;;4896794;29;20024;-78
2023/02/26 01:51:50;;;;;;;3.22;0.50;;;2.80;99.90;;;;;;4878386;29;20029;-77
2023/02/26 01:54:19;;;;;;;5.05;1.15;;;2.80;99.90;;;;;;4876539;29;20570;-77
2023/02/26 01:56:47;;;;;;;4.32;0.63;;;2.70;99.90;;;;;;4878805;29;20115;-76
2023/02/26 01:59:15;;;;;;;2.72;0.65;;;2.70;99.90;;;;;;4897187;29;20135;-76
2023/02/26 02:01:42;;;;;;;13.73;0.75;;;2.70;99.90;;;;;;4895960;29;20033;-75
2023/02/26 02:04:13;;;;;;;4.07;0.57;;;2.70;99.90;;;;;;4894492;29;20037;-75
2023/02/26 02:06:40;;;;;;;2.63;0.47;;;2.60;99.90;;;;;;4879156;29;20044;-76
2023/02/26 02:09:07;;;;;;;3.50;0.65;;;2.60;99.90;;;;;;4877566;29;20048;-77
2023/02/26 02:11:34;;;;;;;5.03;0.30;;;2.50;99.90;;;;;;4890595;29;20572;-77
2023/02/26 02:14:24;;;;;;;6.55;0.73;;;2.50;99.90;;;;;;4890605;29;20033;-77
2023/02/26 02:17:01;;;;;;;5.30;1.98;;;2.50;99.90;;;;;;4880890;29;20124;-76
2023/02/26 02:19:53;;;;;;;0.55;0.20;;;2.40;99.90;;;;;;4879060;29;20088;-75
2023/02/26 02:22:49;;;;;;;5.30;0.63;;;2.40;99.90;;;;;;4889281;29;20033;-76
2023/02/26 02:25:30;;;;;;;4.65;0.30;;;2.40;99.90;;;;;;4893310;29;20386;-77
2023/02/26 02:28:30;;;;;;;8.38;1.10;;;2.40;99.90;;;;;;4866359;29;20109;-77
2023/02/26 02:31:23;;;;;;;0.73;0.30;;;2.30;99.90;;;;;;4880544;29;20494;-76
2023/02/26 02:34:06;;;;;;;1.45;0.40;;;2.40;99.90;;;;;;4881930;29;20036;-77
2023/02/26 02:36:42;;;;;;;2.38;0.93;;;2.30;99.90;;;;;;4914478;29;20032;-77
2023/02/26 02:39:19;;;;;;;3.67;0.43;;;2.30;99.90;;;;;;4895801;29;20116;-77
2023/02/26 02:41:50;;;;;;;1.73;0.43;;;2.20;99.90;;;;;;4901126;29;20044;-77
2023/02/26 02:44:20;;;;;;;0.82;0.45;;;2.30;99.90;;;;;;4892754;29;20525;-77
2023/02/26 02:46:49;;;;;;;0.60;0.47;;;2.30;99.90;;;;;;4880717;29;20025;-77
2023/02/26 02:49:26;;;;;;;2.08;0.28;;;2.30;99.90;;;;;;4882147;29;20059;-77
2023/02/26 02:52:15;;;;;;;2.30;0.70;;;2.20;99.90;;;;;;4884720;29;20037;-76
2023/02/26 02:54:46;;;;;;;3.50;0.75;;;2.20;99.90;;;;;;4899036;29;20115;-77
2023/02/26 02:57:20;;;;;;;3.20;0.80;;;2.20;99.90;;;;;;4900991;29;20039;-77
2023/02/26 02:59:55;;;;;;;3.35;0.35;;;2.10;99.90;;;;;;4897518;29;20063;-77
2023/02/26 03:02:44;;;;;;;2.17;0.63;;;2.20;99.90;;;;;;4882458;29;20439;-77
2023/02/26 03:05:10;;;;;;;1.88;0.30;;;2.20;99.90;;;;;;4865493;29;20025;-77
2023/02/26 03:07:42;;;;;;;0.77;0.40;;;2.20;99.90;;;;;;4878757;29;20036;-77
2023/02/26 03:10:09;;;;;;;1.67;0.40;;;2.20;99.90;;;;;;4898596;29;20088;-76
2023/02/26 03:12:35;;;;;;;2.28;0.20;;;2.10;99.90;;;;;;4900433;29;20124;-77
2023/02/26 03:15:01;;;;;;;1.58;0.38;;;2.10;99.90;;;;;;4897885;29;20104;-77
2023/02/26 03:17:42;;;;;;;0.90;0.43;;;2.10;99.90;;;;;;4882185;29;20078;-77
2023/02/26 03:20:10;;;;;;;0.22;0.13;;;2.10;99.90;;;;;;4900735;29;20032;-76
2023/02/26 03:23:03;;;;;;;1.48;0.88;;;2.10;99.90;;;;;;4882807;29;20046;-78
2023/02/26 03:25:47;;;;;;;1.38;0.68;;;2.10;99.90;;;;;;4866515;29;20045;-78
2023/02/26 03:28:24;;;;;;;4.22;0.52;;;2.10;99.90;;;;;;4896896;29;20028;-76
2023/02/26 03:30:59;;;;;;;2.50;0.28;;;2.10;99.90;;;;;;4882770;29;20037;-78
2023/02/26 03:33:49;;;;;;;1.80;0.25;;;2.00;99.90;;;;;;4865866;29;20639;-79
2023/02/26 03:36:29;;;;;;;0.40;0.20;;;2.00;99.90;;;;;;4883648;29;20112;-78
2023/02/26 03:39:22;;;;;;;4.00;0.65;;;1.90;99.90;;;;;;4898938;29;20033;-78
2023/02/26 03:42:15;;;;;;;0.95;0.50;;;1.90;99.90;;;;;;4851848;29;20041;-78
2023/02/26 03:45:12;;;;;;;1.83;0.30;;;1.80;99.90;;;;;;4882911;29;20052;-77
2023/02/26 03:47:41;;;;;;;3.25;0.40;;;1.80;99.90;;;;;;4878742;29;20055;-77
2023/02/26 03:50:17;;;;;;;0.52;0.25;;;1.80;99.90;;;;;;4892277;29;20091;-77
2023/02/26 03:52:47;;;;;;;11.35;0.57;;;1.70;99.90;;;;;;4898528;29;20044;-78
2023/02/26 03:55:22;;;;;;;3.65;0.30;;;1.70;99.90;;;;;;4900075;29;20524;-78
2023/02/26 03:57:48;;;;;;;7.13;0.47;;;1.70;99.90;;;;;;4881688;29;20410;-78
2023/02/26 04:00:16;;;;;;;0.90;0.20;;;1.70;99.90;;;;;;4899672;29;20032;-77
2023/02/26 04:02:54;;;;;;;4.07;0.52;;;1.60;99.90;;;;;;4899986;29;20503;-76
2023/02/26 04:05:26;;;;;;;6.18;0.60;;;1.60;99.90;;;;;;4882813;29;20041;-76
2023/02/26 04:07:52;;;;;;;2.30;0.20;;;1.70;99.90;;;;;;4880817;29;20084;-78
2023/02/26 04:10:24;;;;;;;4.32;1.27;;;1.70;99.90;;;;;;4891871;29;20033;-77
2023/02/26 04:12:49;;;;;;;0.28;0.20;;;1.70;99.90;;;;;;4890282;29;20273;-78
2023/02/26 04:15:15;;;;;;;1.27;0.30;;;1.70;99.90;;;;;;4896259;29;20029;-77
2023/02/26 04:17:41;;;;;;;5.10;0.55;;;1.70;99.90;;;;;;4898182;29;20553;-77
2023/02/26 04:20:08;;;;;;;2.95;0.52;;;1.60;99.90;;;;;;4896832;29;20029;-76
2023/02/26 04:22:34;;;;;;;3.72;0.30;;;1.60;99.90;;;;;;4881511;29;20060;-76
2023/02/26 04:25:00;;;;;;;0.85;0.25;;;1.60;99.90;;;;;;4896768;29;20064;-76
2023/02/26 04:27:25;;;;;;;2.20;0.20;;;1.60;99.90;;;;;;4897019;29;20456;-77
2023/02/26 04:29:51;;;;;;;0.25;0.17;;;1.60;99.90;;;;;;4894687;29;20100;-77
2023/02/26 04:32:16;;;;;;;0.55;0.55;;;1.50;99.90;;;;;;4898625;29;20032;-77
2023/02/26 04:34:42;;;;;;;6.93;0.35;;;1.50;99.90;;;;;;4897840;29;20029;-78
2023/02/26 04:37:08;;;;;;;5.40;0.60;;;1.50;99.90;;;;;;4882383;29;20036;-77
2023/02/26 04:39:33;;;;;;;5.00;0.25;;;1.50;99.90;;;;;;4887568;29;20044;-77
2023/02/26 04:41:59;;;;;;;1.95;0.50;;;1.40;99.90;;;;;;4904692;29;20060;-78
2023/02/26 04:44:25;;;;;;;3.40;0.45;;;1.40;99.90;;;;;;4886228;29;20033;-77
2023/02/26 04:46:50;;;;;;;9.25;0.40;;;1.40;99.90;;;;;;4904938;29;20032;-77
2023/02/26 04:49:16;;;;;;;1.30;0.63;;;1.40;99.90;;;;;;4897314;29;20039;-77
2023/02/26 04:51:42;;;;;;;1.90;0.75;;;1.40;99.90;;;;;;4916399;29;20033;-77
2023/02/26 04:54:07;;;;;;;0.20;0.20;;;1.40;99.90;;;;;;4917866;29;20032;-77
2023/02/26 04:56:33;;;;;;;3.63;0.70;;;1.40;99.90;;;;;;4890866;29;20017;-77
2023/02/26 04:58:59;;;;;;;1.58;0.82;;;1.40;99.90;;;;;;4895407;29;20033;-76
2023/02/26 05:01:24;;;;;;;1.88;0.25;;;1.40;99.90;;;;;;4898772;29;20055;-77
2023/02/26 05:03:50;;;;;;;2.50;0.45;;;1.40;99.90;;;;;;4886696;29;20045;-77
2023/02/26 05:06:16;;;;;;;0.73;0.30;;;1.30;99.90;;;;;;4895447;29;20028;-78
2023/02/26 05:08:41;;;;;;;6.50;1.02;;;1.30;99.90;;;;;;4919046;29;20046;-79
2023/02/26 05:11:08;;;;;;;0.80;0.35;;;1.40;99.90;;;;;;4918763;29;20187;-77
2023/02/26 05:13:34;;;;;;;0.47;0.30;;;1.40;99.90;;;;;;4917472;29;20033;-77
2023/02/26 05:16:00;;;;;;;0.93;0.68;;;1.30;99.90;;;;;;4917160;29;20070;-76
2023/02/26 05:18:25;;;;;;;0.80;0.28;;;1.30;99.90;;;;;;4918225;29;20087;-76
2023/02/26 05:20:53;;;;;;;6.40;0.50;;;1.20;99.90;;;;;;4899848;29;20032;-75
2023/02/26 05:23:19;;;;;;;3.10;0.25;;;1.20;99.90;;;;;;4896145;29;20119;-76
2023/02/26 05:25:44;;;;;;;2.67;0.30;;;1.10;99.90;;;;;;4912192;29;20035;-77
2023/02/26 05:28:10;;;;;;;0.30;0.30;;;1.10;99.90;;;;;;4898746;29;20060;-76
2023/02/26 05:30:36;;;;;;;2.63;0.63;;;1.10;99.90;;;;;;4899669;29;20032;-76
2023/02/26 05:33:01;;;;;;;4.13;0.95;;;1.10;99.90;;;;;;4912232;29;20025;-77
2023/02/26 05:35:29;;;;;;;12.35;0.47;;;1.10;99.90;;;;;;4900166;29;20131;-77
2023/02/26 05:37:54;;;;;;;1.45;0.35;;;1.00;99.90;;;;;;4913055;29;20060;-76
2023/02/26 05:40:20;;;;;;;4.78;0.52;;;1.00;99.90;;;;;;4896260;29;20036;-76
2023/02/26 05:42:45;;;;;;;6.47;0.30;;;1.00;99.90;;;;;;4884612;29;20341;-76
2023/02/26 05:45:11;;;;;;;1.27;0.30;;;1.00;99.90;;;;;;4899278;29;20063;-76
2023/02/26 05:47:37;;;;;;;0.45;0.20;;;1.00;99.90;;;;;;4883302;29;20092;-77
2023/02/26 05:50:04;;;;;;;5.35;0.50;;;1.00;99.90;;;;;;4899388;29;20393;-78
2023/02/26 05:52:30;;;;;;;0.27;0.27;;;1.00;99.90;;;;;;4883441;29;20032;-78
2023/02/26 05:54:56;;;;;;;1.20;0.38;;;1.00;99.90;;;;;;4880972;29;20647;-77
2023/02/26 05:57:22;;;;;;;1.30;0.47;;;0.90;99.90;;;;;;4873521;29;20024;-78
2023/02/26 05:59:48;;;;;;;4.10;0.35;;;0.90;99.90;;;;;;4895332;29;20089;-77
2023/02/26 06:02:14;;;;;;;1.90;0.47;;;0.90;99.90;;;;;;4880856;29;20493;-77
2023/02/26 06:04:40;;;;;;;0.20;0.20;;;0.80;99.90;;;;;;4880202;29;20442;-76
2023/02/26 06:07:06;;;;;;;1.65;0.40;;;0.80;99.90;;;;;;4881062;29;20068;-76
2023/02/26 06:09:32;;;;;;;1.10;0.30;;;0.80;99.90;;;;;;4895351;29;20025;-78
2023/02/26 06:11:57;;;;;;;2.50;0.20;;;0.80;99.90;;;;;;4883166;29;21813;-78
2023/02/26 06:14:23;;;;;;;0.50;0.50;;;0.80;99.90;;;;;;4899902;29;20034;-78
2023/02/26 06:16:51;;;;;;;1.25;0.50;;;0.70;99.90;;;;;;4884993;29;20032;-77
2023/02/26 06:19:17;;;;;;;1.55;0.38;;;0.70;99.90;;;;;;4893967;29;20029;-78
2023/02/26 06:21:44;;;;;;;5.78;0.75;;;0.70;99.90;;;;;;4867993;29;20028;-78
2023/02/26 06:24:09;;;;;;;7.97;0.32;;;0.70;99.90;;;;;;4899300;29;20039;-78
2023/02/26 06:26:35;;;;;;;2.45;0.35;;;0.80;99.90;;;;;;4883942;29;20489;-77
2023/02/26 06:29:01;;;;;;;7.22;0.45;;;0.70;99.90;;;;;;4883304;29;20126;-78
2023/02/26 06:31:29;;;;;;;7.75;0.50;;;0.70;99.90;;;;;;4899430;29;20049;-78
2023/02/26 06:33:55;;;;;;;0.52;0.15;;;0.70;99.90;;;;;;4889323;29;20497;-78
2023/02/26 06:36:20;;;;;;;1.75;0.45;;;0.70;99.90;;;;;;4900970;29;20044;-77
2023/02/26 06:38:48;;;;;;;2.30;0.55;;;0.70;99.90;;;;;;4899278;29;20266;-77
2023/02/26 06:41:14;;;;;;;3.88;0.20;;;0.60;99.90;;;;;;4900297;29;20040;-77
2023/02/26 06:43:39;;;;;;;2.55;0.25;;;0.60;99.90;;;;;;4882375;29;20033;-77
2023/02/26 06:46:05;;;;;;;5.15;0.80;;;0.60;99.90;;;;;;4893343;29;20035;-79
2023/02/26 06:48:32;;;;;;;8.60;0.93;;;0.60;99.90;;;;;;4898996;29;20052;-77
2023/02/26 06:50:57;;;;;;;1.00;0.13;;;0.70;99.90;;;;;;4883302;29;20393;-78
2023/02/26 06:53:24;;;;;;;5.00;0.68;;;0.70;99.90;;;;;;4898344;29;20040;-77
2023/02/26 06:55:51;;;;;;;0.50;0.45;;;0.80;99.90;;;;;;4899463;29;20501;-78
2023/02/26 06:58:18;;;;;;;6.18;0.40;;;0.80;99.90;;;;;;4899188;29;20460;-77
2023/02/26 07:00:44;;;;;;;4.68;0.70;;;0.90;99.90;;;;;;4899113;29;20443;-77
2023/02/26 07:03:16;;;;;;;3.20;0.43;;;0.90;99.90;;;;;;4883014;29;20092;-77
2023/02/26 07:05:43;;;;;;;1.15;0.60;;;0.90;99.90;;;;;;4883456;29;20072;-77
2023/02/26 07:08:09;;;;;;;0.43;0.30;;;0.90;99.90;;;;;;4899466;29;20052;-77
2023/02/26 07:10:35;;;;;;;2.15;0.47;;;1.00;99.90;;;;;;4879577;29;20033;-78
2023/02/26 07:13:01;;;;;;;1.77;0.20;;;1.10;99.90;;;;;;4900138;29;20024;-78
2023/02/26 07:15:28;;;;;;;1.13;0.43;;;1.10;99.90;;;;;;4879741;29;21271;-78
2023/02/26 07:17:55;;;;;;;1.90;0.30;;;1.10;99.90;;;;;;4884169;29;20544;-79
2023/02/26 07:20:21;;;;;;;1.40;0.30;;;1.10;99.90;;;;;;4896516;29;20040;-78
2023/02/26 07:22:47;;;;;;;0.38;0.10;;;1.10;99.90;;;;;;4898762;29;20131;-78
2023/02/26 07:25:13;;;;;;;2.08;0.40;;;1.20;99.90;;;;;;4905130;29;20121;-79
2023/02/26 07:27:38;;;;;;;3.85;0.57;;;1.20;99.90;;;;;;4900542;29;20036;-79
2023/02/26 07:30:06;;;;;;;4.35;0.45;;;1.30;99.90;;;;;;4879118;29;20092;-79
2023/02/26 07:32:32;;;;;;;1.90;0.68;;;1.30;99.90;;;;;;4881799;29;20040;-79
2023/02/26 07:34:57;;;;;;;0.50;0.32;;;1.40;99.90;;;;;;4880849;29;20045;-79
2023/02/26 07:37:24;;;;;;;5.53;1.67;;;1.50;99.90;;;;;;4900553;29;20063;-79
2023/02/26 07:39:50;;;;;;;9.45;0.40;;;1.60;99.90;;;;;;4881388;29;20032;-79
2023/02/26 07:42:16;;;;;;;2.50;0.85;;;1.60;99.90;;;;;;4900381;29;20048;-78
2023/02/26 07:44:41;;;;;;;3.13;0.68;;;1.70;99.90;;;;;;4896761;29;20032;-78
2023/02/26 07:47:09;;;;;;;1.52;0.45;;;1.80;99.90;;;;;;4899750;29;20064;-78
2023/02/26 07:49:35;;;;;;;3.17;0.82;;;1.80;99.90;;;;;;4893380;29;20061;-78
2023/02/26 07:52:01;;;;;;;4.38;0.55;;;1.90;99.90;;;;;;4898834;29;20041;-78
2023/02/26 07:54:27;;;;;;;4.70;0.40;;;1.90;99.90;;;;;;4875359;29;20035;-79
2023/02/26 07:56:54;;;;;;;2.42;0.50;;;1.90;99.90;;;;;;4870457;29;20057;-78
2023/02/26 07:59:20;;;;;;;1.55;0.38;;;2.10;99.90;;;;;;4867027;29;20124;-78
2023/02/26 08:01:45;;;;;;;6.45;0.40;;;2.10;99.90;;;;;;4880004;29;20108;-79
2023/02/26 08:04:11;;;;;;;4.07;0.30;;;2.10;99.90;;;;;;4898461;29;20096;-78
2023/02/26 08:06:37;;;;;;;2.25;0.10;;;2.10;99.90;;;;;;4897549;29;20021;-76
2023/02/26 08:09:04;;;;;;;0.68;0.55;;;2.20;99.90;;;;;;4893698;29;20032;-77
2023/02/26 08:11:31;;;;;;;0.50;0.25;;;2.30;99.90;;;;;;4881272;29;20032;-78
2023/02/26 08:13:58;;;;;;;1.92;0.50;;;2.30;99.90;;;;;;4894741;29;20481;-78
2023/02/26 08:16:23;;;;;;;10.13;1.02;;;2.40;99.90;;;;;;4880601;29;20025;-78
2023/02/26 08:18:49;;;;;;;1.65;0.50;;;2.50;99.90;;;;;;4897917;29;20067;-77
2023/02/26 08:21:14;;;;;;;4.80;0.25;;;2.60;99.90;;;;;;4880703;29;20096;-76
2023/02/26 08:23:41;;;;;;;2.55;0.65;;;2.70;99.90;;;;;;4897630;29;20119;-76
2023/02/26 08:26:09;;;;;;;5.38;0.50;;;2.80;99.90;;;;;;4895760;29;20116;-77
2023/02/26 08:28:35;;;;;;;2.13;0.60;;;2.90;99.90;;;;;;4894155;29;20043;-77
2023/02/26 08:31:02;;;;;;;3.00;0.30;;;3.00;99.90;;;;;;4895699;29;20052;-76
2023/02/26 08:33:28;;;;;;;8.02;0.47;;;3.10;99.90;;;;;;4897107;29;20029;-77
2023/02/26 08:35:57;;;;;;;8.85;1.05;;;3.20;99.90;;;;;;4898190;29;20028;-77
2023/02/26 08:38:27;;;;;;;0.43;0.40;;;3.10;99.90;;;;;;4897421;29;20037;-77
2023/02/26 08:40:53;;;;;;;3.10;0.30;;;3.10;99.90;;;;;;4863802;29;20041;-77
2023/02/26 08:43:19;;;;;;;1.13;0.50;;;3.30;99.90;;;;;;4881333;29;20084;-77
2023/02/26 08:45:45;;;;;;;1.83;0.30;;;3.40;99.90;;;;;;4885398;29;20036;-78
2023/02/26 08:48:12;;;;;;;5.45;0.30;;;3.40;99.90;;;;;;4896910;29;20517;-77
2023/02/26 08:50:39;;;;;;;0.90;0.47;;;3.30;99.90;;;;;;4878153;29;20458;-77
2023/02/26 08:53:05;;;;;;;7.00;0.28;;;3.30;99.90;;;;;;4896990;29;20037;-78
2023/02/26 08:55:31;;;;;;;1.40;0.30;;;3.40;99.90;;;;;;4881324;29;20107;-78
2023/02/26 08:57:57;;;;;;;0.30;0.25;;;3.50;99.90;;;;;;4880300;29;20036;-77
2023/02/26 09:00:23;;;;;;;0.85;0.30;;;3.70;99.90;;;;;;4895134;29;20055;-76
2023/02/26 09:02:48;;;;;;;5.28;0.32;;;3.60;99.90;;;;;;4877398;29;20056;-78
2023/02/26 09:05:14;;;;;;;0.95;0.20;;;3.70;99.90;;;;;;4895529;29;20092;-77
2023/02/26 09:07:40;;;;;;;0.50;0.30;;;3.70;99.90;;;;;;4900462;29;20025;-78
2023/02/26 09:10:07;;;;;;;0.38;0.10;;;3.80;99.90;;;;;;4897170;29;20024;-77
2023/02/26 09:12:35;;;;;;;0.80;0.28;;;3.70;99.90;;;;;;4892972;29;20378;-77
2023/02/26 09:15:05;;;;;;;1.85;0.20;;;3.80;99.90;;;;;;4897844;29;20092;-77
2023/02/26 09:17:31;;;;;;;3.75;0.45;;;3.90;99.90;;;;;;4879554;29;20439;-76
2023/02/26 09:19:57;;;;;;;2.63;0.15;;;3.80;99.90;;;;;;4896480;29;20101;-76
2023/02/26 09:22:23;;;;;;;5.50;0.55;;;3.80;99.90;;;;;;4897469;29;20119;-78
2023/02/26 09:24:49;;;;;;;4.20;0.40;;;3.90;99.90;;;;;;4895491;29;20095;-77
2023/02/26 09:27:15;;;;;;;1.13;0.38;;;4.00;99.90;;;;;;4900257;29;20382;-76
2023/02/26 09:29:41;;;;;;;2.78;0.22;;;4.10;99.90;;;;;;4879888;29;20052;-78
2023/02/26 09:32:07;;;;;;;1.23;0.28;;;4.00;99.90;;;;;;4881676;29;20029;-77
2023/02/26 09:34:37;;;;;;;0.88;0.30;;;4.20;99.90;;;;;;4876916;29;20611;-78
2023/02/26 09:37:05;;;;;;;2.10;0.30;;;4.20;99.90;;;;;;4898266;29;20496;-77
2023/02/26 09:39:31;;;;;;;1.13;0.30;;;4.30;99.90;;;;;;4897267;29;20036;-77
2023/02/26 09:42:07;;;;;;;0.10;0.10;;;4.30;99.90;;;;;;4897851;29;20025;-77
2023/02/26 09:44:36;;;;;;;3.85;0.30;;;4.30;99.90;;;;;;4896175;29;20109;-77
2023/02/26 09:47:24;;;;;;;6.43;0.55;;;4.40;99.90;;;;;;4895620;29;20072;-77
2023/02/26 09:50:12;;;;;;;1.38;0.35;;;4.40;99.90;;;;;;4879850;29;20056;-78
2023/02/26 09:53:02;;;;;;;1.40;0.40;;;4.50;99.90;;;;;;4879415;29;20033;-77
2023/02/26 09:55:45;;;;;;;0.80;0.32;;;4.50;99.90;;;;;;4891810;29;20172;-78
2023/02/26 09:58:31;;;;;;;0.20;0.20;;;4.60;99.90;;;;;;4880190;29;20527;-78
2023/02/26 10:01:04;;;;;;;4.43;0.43;;;4.60;99.90;;;;;;4880819;29;20048;-77
2023/02/26 10:03:38;;;;;;;0.50;0.45;;;4.70;99.90;;;;;;4879843;29;20039;-77
2023/02/26 10:06:09;;;;;;;0.88;0.22;;;4.70;99.90;;;;;;4879266;29;20056;-77
2023/02/26 10:08:43;;;;;;;2.30;0.30;;;4.70;99.90;;;;;;4895846;29;20473;-76
2023/02/26 10:11:50;;;;;;;3.30;0.20;;;4.70;99.90;;;;;;4878730;29;20036;-77
2023/02/26 10:14:49;;;;;;;1.10;0.10;;;4.90;99.90;;;;;;4863792;29;20041;-77
2023/02/26 10:17:31;;;;;;;3.15;0.17;;;5.00;99.90;;;;;;4882434;29;20493;-76
2023/02/26 10:20:03;;;;;;;3.63;0.10;;;5.00;99.90;;;;;;4893820;29;20033;-77
2023/02/26 10:22:58;;;;;;;1.85;0.40;;;5.10;99.90;;;;;;4891960;29;20041;-76
2023/02/26 10:25:30;;;;;;;2.40;0.63;;;5.20;99.90;;;;;;4873829;29;20041;-77
2023/02/26 10:28:28;;;;;;;0.35;0.13;;;5.30;99.90;;;;;;4876987;29;20487;-77
2023/02/26 10:30:56;;;;;;;;;;;5.20;99.90;;;;;;4835258;29;20037;-76
2023/02/26 10:33:56;;;;;;;0.25;0.00;;;5.20;99.90;;;;;;4907134;29;20094;-78
2023/02/26 10:36:24;;;;;;;0.00;0.00;;;5.20;99.90;;;;;;4878739;29;20033;-76
2023/02/26 10:38:58;;;;;;;1.70;0.22;;;5.30;99.90;;;;;;4862157;29;20040;-77
2023/02/26 10:41:27;;;;;;;6.72;0.52;;;5.30;99.90;;;;;;4877583;29;20036;-78
2023/02/26 10:44:28;;;;;;;0.35;0.17;;;5.20;99.90;;;;;;4884307;29;20406;-78
2023/02/26 10:47:12;;;;;;;1.38;0.17;;;5.40;99.90;;;;;;4891401;29;20434;-77
2023/02/26 10:50:02;;;;;;;0.40;0.30;;;5.50;99.90;;;;;;4881071;29;20430;-76
2023/02/26 10:52:31;;;;;;;1.95;0.43;;;5.70;99.90;;;;;;4870019;29;20048;-76
2023/02/26 10:55:40;;;;;;;2.42;0.30;;;5.80;99.90;;;;;;4895080;29;20021;-76
2023/02/26 10:58:14;;;;;;;0.20;0.20;;;6.00;99.90;;;;;;4802497;29;20035;-76
2023/02/26 11:00:42;;;;;;;1.98;0.20;;;5.90;99.90;;;;;;4805220;29;20039;-77
2023/02/26 11:03:15;;;;;;;0.45;0.10;;;6.10;99.90;;;;;;4861526;29;20036;-76
2023/02/26 11:05:41;;;;;;;4.97;0.60;;;6.10;99.90;;;;;;4917642;29;20030;-77
2023/02/26 11:08:22;;;;;;;2.80;0.40;;;5.90;99.90;;;;;;4900502;29;20033;-77
2023/02/26 11:10:57;;;;;;;5.97;0.80;;;5.90;99.90;;;;;;4901746;29;20020;-76
2023/02/26 11:13:25;;;;;;;0.57;0.30;;;5.80;99.90;;;;;;4907733;29;20024;-77
2023/02/26 11:15:54;;;;;;;3.03;0.30;;;5.60;99.90;;;;;;4923822;29;20041;-76
2023/02/26 11:18:53;;;;;;;0.25;0.08;;;5.50;99.90;;;;;;4906059;29;20047;-77
2023/02/26 11:21:23;;;;;;;1.00;0.20;;;5.50;99.90;;;;;;4908076;29;20032;-76
2023/02/26 11:24:06;;;;;;;2.50;0.43;;;5.40;99.90;;;;;;4922581;29;20047;-78
2023/02/26 11:26:35;;;;;;;0.98;0.30;;;5.30;99.90;;;;;;4908991;29;20021;-76
2023/02/26 11:29:02;;;;;;;2.40;0.32;;;5.50;99.90;;;;;;4908184;29;20024;-76
2023/02/26 11:31:29;;;;;;;0.63;0.10;;;5.70;99.90;;;;;;4922752;29;20040;-76
2023/02/26 11:34:10;;;;;;;5.38;0.40;;;5.80;99.90;;;;;;4924461;29;20045;-76
2023/02/26 11:36:41;;;;;;;0.47;0.15;;;5.90;99.90;;;;;;4923538;29;20084;-76
2023/02/26 11:39:14;;;;;;;3.97;0.50;;;6.00;99.90;;;;;;4923699;29;20017;-76
2023/02/26 11:41:40;;;;;;;2.85;0.70;;;6.10;99.90;;;;;;4922833;29;20044;-77
2023/02/26 11:44:17;;;;;;;1.77;0.47;;;6.20;99.90;;;;;;4922245;29;20064;-76
2023/02/26 11:46:48;;;;;;;3.78;0.40;;;6.30;99.90;;;;;;4922140;29;20058;-76
2023/02/26 11:49:17;;;;;;;0.57;0.25;;;6.50;99.90;;;;;;4922360;29;20093;-76
2023/02/26 11:51:46;;;;;;;2.47;0.20;;;6.50;99.90;;;;;;4908102;29;20031;-76
2023/02/26 11:54:26;;;;;;;1.13;0.20;;;6.50;99.90;;;;;;4904140;29;20017;-77
2023/02/26 11:56:59;;;;;;;4.18;0.65;;;6.40;99.90;;;;;;4926626;29;20097;-76
2023/02/26 11:59:25;;;;;;;0.10;0.10;;;6.40;99.90;;;;;;4905566;29;20033;-77
2023/02/26 12:01:52;;;;;;;2.72;0.28;;;6.30;99.90;;;;;;4916987;29;20072;-74
2023/02/26 12:04:22;;;;;;;1.70;1.00;;;6.20;99.90;;;;;;4905054;29;20071;-76
2023/02/26 12:06:53;;;;;;;1.15;0.28;;;6.30;99.90;;;;;;4903945;29;20048;-77
2023/02/26 12:09:20;;;;;;;0.68;0.40;;;6.40;99.90;;;;;;4895229;29;20107;-76
2023/02/26 12:12:13;;;;;;;3.63;0.43;;;6.30;99.90;;;;;;4904557;29;20520;-76
2023/02/26 12:14:54;;;;;;;2.78;0.30;;;6.30;99.90;;;;;;4885412;29;20121;-76
2023/02/26 12:17:37;;;;;;;0.57;0.30;;;6.50;99.90;;;;;;4898138;29;20096;-76
2023/02/26 12:20:18;;;;;;;5.03;0.40;;;6.50;99.90;;;;;;4897579;29;20606;-76
2023/02/26 12:22:56;;;;;;;1.17;0.10;;;6.50;99.90;;;;;;4889373;29;20409;-76
2023/02/26 12:25:47;;;;;;;0.65;0.35;;;6.20;99.90;;;;;;4876895;29;20067;-76
2023/02/26 12:28:40;;;;;;;1.98;0.30;;;6.10;99.90;;;;;;4897213;29;20055;-76
2023/02/26 12:31:17;;;;;;;0.28;0.20;;;6.30;99.90;;;;;;4897462;29;20049;-77
2023/02/26 12:34:10;;;;;;;3.88;0.73;;;6.50;99.90;;;;;;4878759;29;20402;-76
2023/02/26 12:36:59;;;;;;;0.20;0.20;;;6.80;99.90;;;;;;4896689;29;20035;-77
2023/02/26 12:39:47;;;;;;;1.55;0.30;;;7.00;99.90;;;;;;4870879;29;20040;-77
2023/02/26 12:42:28;;;;;;;2.60;0.55;;;7.00;99.90;;;;;;4880885;29;20494;-76
2023/02/26 12:45:41;;;;;;;1.05;1.00;;;6.90;99.90;;;;;;4878151;29;20044;-76
2023/02/26 12:48:39;;;;;;;4.00;0.38;;;6.70;99.60;;;;;;4877744;29;20409;-76
2023/02/26 12:51:19;;;;;;;1.13;0.20;;;6.80;99.00;;;;;;4894498;29;20064;-75
2023/02/26 12:54:07;;;;;;;5.18;0.28;;;6.90;99.50;;;;;;4881077;29;20414;-76
2023/02/26 12:57:00;;;;;;;7.18;0.32;;;7.00;99.90;;;;;;4904794;29;20123;-77
2023/02/26 12:59:44;;;;;;;0.20;0.20;;;7.20;99.20;;;;;;4889245;29;20058;-76
2023/02/26 13:02:44;;;;;;;2.40;0.55;;;7.20;99.60;;;;;;4876567;29;20477;-76
2023/02/26 13:05:41;;;;;;;0.15;0.10;;;7.20;99.50;;;;;;4889614;29;20417;-76
2023/02/26 13:08:32;;;;;;;1.52;0.40;;;7.30;98.80;;;;;;4881177;29;20536;-75
2023/02/26 13:11:24;;;;;;;0.57;0.40;;;7.40;99.10;;;;;;4877446;29;20044;-77
2023/02/26 13:14:08;;;;;;;2.28;0.10;;;7.30;99.00;;;;;;4889232;29;20033;-76
2023/02/26 13:16:51;;;;;;;0.32;0.10;;;7.40;99.70;;;;;;4880658;29;20044;-77
2023/02/26 13:19:26;;;;;;;0.20;0.20;;;7.70;99.60;;;;;;4879753;29;20032;-77
2023/02/26 13:22:00;;;;;;;2.10;0.43;;;7.60;99.90;;;;;;4840297;29;20041;-77
2023/02/26 13:24:35;;;;;;;1.52;0.43;;;7.50;99.90;;;;;;4840632;29;20042;-76
2023/02/26 13:27:02;;;;;;;2.50;0.60;;;7.50;99.90;;;;;;4840459;29;20451;-75